GGBF weather

Bafatá Airport
Bafatá, Bafatá Region, Guinea-Bissau

Public forecast

Using degrees Celsius for public forecast. Weather courtesy of forecast.io.

METAR (pilot weather report)

Closest report is Osvaldo Vieira International Airport, 60.2 nm (111.5 km) WSW. Retrieved 2019/03/23 09:00 UTC (1 hour ago):

GGOV 230900Z 36010KT 8000 NSC 22/19 Q1012 NOSIG

TAF (pilot weather forecast)

Forecast is more than 12 hours old.

Closest forecast is Osvaldo Vieira International Airport, 60.2 nm (111.5 km) WSW. Retrieved 2019/03/22 00:51 UTC (1 day ago):

TAF GGOV 222300Z 2300/2324 30008KT 8000 NSC